createdAt,value
2022-09-03T00:02:28.587Z,1.40
2022-09-03T00:05:08.291Z,1.50
2022-09-03T00:07:57.043Z,1.42
2022-09-03T00:10:56.236Z,1.23
2022-09-03T00:13:32.487Z,1.70
2022-09-03T00:16:03.289Z,1.52
2022-09-03T00:18:34.997Z,1.45
2022-09-03T00:21:09.141Z,0.98
2022-09-03T00:23:41.321Z,1.30
2022-09-03T00:26:13.929Z,1.50
2022-09-03T00:28:59.099Z,1.52
2022-09-03T00:31:42.994Z,1.92
2022-09-03T00:34:21.279Z,1.55
2022-09-03T00:36:47.820Z,2.38
2022-09-03T00:39:20.714Z,1.67
2022-09-03T00:42:07.967Z,1.58
2022-09-03T00:45:02.319Z,1.98
2022-09-03T00:47:53.877Z,1.50
2022-09-03T00:50:45.491Z,2.33
2022-09-03T00:53:20.560Z,1.98
2022-09-03T00:56:26.100Z,1.63
2022-09-03T00:59:07.881Z,1.40
2022-09-03T01:01:55.892Z,1.35
2022-09-03T01:04:32.689Z,1.38
2022-09-03T01:07:21.964Z,1.92
2022-09-03T01:09:57.455Z,1.60
2022-09-03T01:12:44.013Z,1.42
2022-09-03T01:15:22.716Z,1.38
2022-09-03T01:18:03.948Z,1.60
2022-09-03T01:20:36.057Z,1.40
2022-09-03T01:23:11.993Z,1.85
2022-09-03T01:26:16.377Z,1.33
2022-09-03T01:28:58.398Z,2.03
2022-09-03T01:31:27.662Z,1.95
2022-09-03T01:34:26.343Z,1.37
2022-09-03T01:37:05.685Z,1.45
2022-09-03T01:39:59.834Z,1.83
2022-09-03T01:43:01.505Z,2.35
2022-09-03T01:45:36.826Z,1.77
2022-09-03T01:48:10.279Z,1.42
2022-09-03T01:51:01.559Z,1.50
2022-09-03T01:53:52.951Z,1.60
2022-09-03T01:56:41.176Z,1.90
2022-09-03T01:59:22.492Z,1.63
2022-09-03T02:02:21.267Z,1.45
2022-09-03T02:05:11.562Z,1.77
2022-09-03T02:10:25.277Z,1.42
2022-09-03T02:12:56.937Z,1.63
2022-09-03T02:15:26.825Z,1.70
2022-09-03T02:17:57.873Z,1.55
2022-09-03T02:20:27.307Z,1.52
2022-09-03T02:22:54.581Z,1.63
2022-09-03T02:25:26.500Z,2.35
2022-09-03T02:27:53.425Z,2.28
2022-09-03T02:30:19.949Z,1.77
2022-09-03T02:32:46.734Z,2.30
2022-09-03T02:35:13.366Z,1.65
2022-09-03T02:37:40.062Z,1.52
2022-09-03T02:40:10.200Z,1.65
2022-09-03T02:42:37.068Z,1.42
2022-09-03T02:45:28.320Z,1.90
2022-09-03T02:47:58.784Z,1.52
2022-09-03T02:50:25.723Z,2.25
2022-09-03T02:52:52.456Z,1.65
2022-09-03T02:55:20.091Z,3.35
2022-09-03T02:57:46.937Z,1.40
2022-09-03T03:00:14.281Z,2.20
2022-09-03T03:02:41.916Z,1.33
2022-09-03T03:05:13.407Z,1.70
2022-09-03T03:07:41.030Z,1.65
2022-09-03T03:10:08.511Z,3.25
2022-09-03T03:12:35.345Z,2.97
2022-09-03T03:15:01.921Z,2.45
2022-09-03T03:17:28.892Z,2.75
2022-09-03T03:19:55.454Z,2.33
2022-09-03T03:22:21.934Z,3.97
2022-09-03T03:24:50.488Z,3.25
2022-09-03T03:27:17.145Z,2.85
2022-09-03T03:29:43.747Z,2.17
2022-09-03T03:32:10.288Z,3.17
2022-09-03T03:34:36.874Z,3.97
2022-09-03T03:37:04.550Z,2.83
2022-09-03T03:39:31.076Z,2.67
2022-09-03T03:41:57.999Z,2.38
2022-09-03T03:44:24.580Z,2.13
2022-09-03T03:46:51.136Z,2.00
2022-09-03T03:49:17.800Z,2.95
2022-09-03T03:51:44.327Z,3.97
2022-09-03T03:54:10.791Z,2.40
2022-09-03T03:56:41.052Z,2.17
2022-09-03T03:59:07.550Z,2.95
2022-09-03T04:01:34.258Z,3.47
2022-09-03T04:04:01.061Z,2.17
2022-09-03T04:06:28.708Z,3.47
2022-09-03T04:08:55.479Z,2.60
2022-09-03T04:11:24.011Z,2.40
2022-09-03T04:13:51.458Z,2.25
2022-09-03T04:16:19.378Z,2.88
2022-09-03T04:18:46.632Z,3.08
2022-09-03T04:21:15.967Z,2.55
2022-09-03T04:23:45.493Z,2.03
2022-09-03T04:26:14.573Z,2.67
2022-09-03T04:28:45.590Z,2.17
2022-09-03T04:31:14.151Z,3.80
2022-09-03T04:33:42.377Z,2.80
2022-09-03T04:36:13.910Z,3.00
2022-09-03T04:38:42.743Z,3.80
2022-09-03T04:41:11.601Z,1.88
2022-09-03T04:43:38.769Z,3.72
2022-09-03T04:46:10.832Z,3.90
2022-09-03T04:48:47.932Z,2.45
2022-09-03T04:51:17.442Z,1.85
2022-09-03T04:53:46.478Z,3.35
2022-09-03T04:56:21.758Z,4.07
2022-09-03T04:58:50.982Z,3.22
2022-09-03T05:01:20.388Z,4.43
2022-09-03T05:03:47.624Z,3.60
2022-09-03T05:06:17.177Z,4.10
2022-09-03T05:08:48.248Z,4.38
2022-09-03T05:11:16.398Z,2.38
2022-09-03T05:13:43.187Z,2.67
2022-09-03T05:16:13.259Z,2.67
2022-09-03T05:18:42.368Z,1.75
2022-09-03T05:21:11.513Z,3.13
2022-09-03T05:23:40.735Z,2.75
2022-09-03T05:26:11.150Z,3.25
2022-09-03T05:28:40.397Z,2.75
2022-09-03T05:31:09.940Z,5.90
2022-09-03T05:33:38.267Z,2.33
2022-09-03T05:36:07.898Z,3.38
2022-09-03T05:38:34.579Z,2.50
2022-09-03T05:41:02.317Z,2.30
2022-09-03T05:43:29.473Z,5.15
2022-09-03T05:46:07.377Z,4.10
2022-09-03T05:48:35.749Z,3.53
2022-09-03T05:51:09.537Z,3.45
2022-09-03T05:53:38.665Z,1.80
2022-09-03T05:56:08.065Z,3.00
2022-09-03T05:58:36.098Z,2.13
2022-09-03T06:01:19.246Z,4.72
2022-09-03T06:03:48.241Z,4.53
2022-09-03T06:06:15.651Z,2.92
2022-09-03T06:08:44.865Z,4.53
2022-09-03T06:11:11.666Z,3.83
2022-09-03T06:13:38.211Z,2.00
2022-09-03T06:16:07.144Z,2.55
2022-09-03T06:18:33.757Z,4.93
2022-09-03T06:21:02.515Z,3.95
2022-09-03T06:23:30.359Z,2.90
2022-09-03T06:28:56.297Z,3.63
2022-09-03T06:34:04.367Z,2.85
2022-09-03T06:36:31.198Z,4.75
2022-09-03T06:39:09.275Z,5.68
2022-09-03T06:41:36.012Z,2.92
2022-09-03T06:44:05.849Z,6.93
2022-09-03T06:46:34.972Z,10.35
2022-09-03T06:49:02.215Z,12.25
2022-09-03T06:54:12.232Z,5.82
2022-09-03T06:56:41.231Z,3.35
2022-09-03T06:59:28.473Z,4.80
2022-09-03T07:01:55.383Z,2.78
2022-09-03T07:04:24.984Z,3.25
2022-09-03T07:12:18.330Z,2.85
2022-09-03T07:14:47.247Z,2.30
2022-09-03T07:17:17.579Z,4.18
2022-09-03T07:19:44.291Z,2.78
2022-09-03T07:22:11.577Z,4.65
2022-09-03T07:24:38.099Z,3.90
2022-09-03T07:27:05.612Z,2.65
2022-09-03T07:29:32.193Z,3.80
2022-09-03T07:31:58.799Z,2.10
2022-09-03T07:34:27.116Z,3.13
2022-09-03T07:37:02.166Z,1.98
2022-09-03T07:42:11.159Z,2.97
2022-09-03T07:44:37.753Z,1.88
2022-09-03T07:47:04.340Z,2.92
2022-09-03T07:49:31.352Z,2.80
2022-09-03T07:51:57.881Z,2.30
2022-09-03T07:54:33.829Z,3.67
2022-09-03T07:57:00.386Z,4.90
2022-09-03T07:59:28.759Z,3.50
2022-09-03T08:04:43.789Z,3.85
2022-09-03T08:14:58.304Z,2.45
2022-09-03T08:22:49.655Z,2.38
2022-09-03T08:25:16.438Z,2.72
2022-09-03T08:27:43.093Z,3.08
2022-09-03T08:30:13.245Z,4.00
2022-09-03T08:32:40.631Z,3.60
2022-09-03T08:37:57.005Z,3.47
2022-09-03T08:40:24.326Z,2.30
2022-09-03T08:45:46.856Z,3.40
2022-09-03T08:48:25.866Z,1.85
2022-09-03T08:50:59.890Z,3.60
2022-09-03T08:53:48.096Z,2.28
2022-09-03T08:56:29.310Z,2.17
2022-09-03T08:58:56.134Z,2.40
2022-09-03T09:01:28.441Z,2.90
2022-09-03T09:04:06.921Z,2.50
2022-09-03T09:06:38.052Z,3.35
2022-09-03T09:12:35.758Z,2.70
2022-09-03T09:15:13.657Z,2.75
2022-09-03T09:17:58.305Z,3.42
2022-09-03T09:20:41.779Z,1.60
2022-09-03T09:23:14.598Z,2.10
2022-09-03T09:28:47.331Z,2.60
2022-09-03T09:31:19.069Z,1.70
2022-09-03T09:33:46.374Z,1.75
2022-09-03T09:39:09.090Z,1.50
2022-09-03T09:44:21.060Z,1.65
2022-09-03T09:46:51.466Z,1.70
2022-09-03T09:55:31.670Z,2.40
2022-09-03T09:58:14.090Z,1.90
2022-09-03T10:00:42.782Z,2.63
2022-09-03T10:03:13.659Z,2.10
2022-09-03T10:05:41.061Z,2.40
2022-09-03T10:08:30.531Z,1.77
2022-09-03T10:10:57.288Z,2.27
2022-09-03T10:13:40.428Z,2.17
2022-09-03T10:16:26.467Z,4.30
2022-09-03T10:19:17.219Z,5.85
2022-09-03T10:22:09.577Z,6.03
2022-09-03T10:27:16.972Z,5.32
2022-09-03T10:29:43.486Z,4.50
2022-09-03T10:32:36.885Z,6.28
2022-09-03T10:35:42.646Z,6.13
2022-09-03T10:38:23.587Z,5.80
2022-09-03T10:41:03.716Z,4.10
2022-09-03T10:44:08.550Z,4.80
2022-09-03T10:47:01.588Z,4.57
2022-09-03T10:49:49.587Z,4.70
2022-09-03T10:52:37.717Z,3.90
2022-09-03T10:55:34.747Z,2.95
2022-09-03T11:01:22.350Z,2.47
2022-09-03T11:04:15.206Z,2.60
2022-09-03T11:06:56.852Z,2.60
2022-09-03T11:09:46.205Z,2.42
2022-09-03T11:12:27.738Z,3.08
2022-09-03T11:15:03.917Z,3.72
2022-09-03T11:17:40.068Z,2.35
2022-09-03T11:20:17.124Z,2.78
2022-09-03T11:22:46.638Z,3.45
2022-09-03T11:25:21.250Z,2.20
2022-09-03T11:28:11.638Z,3.90
2022-09-03T11:33:10.743Z,2.85
2022-09-03T11:35:37.179Z,2.17
2022-09-03T11:38:23.472Z,3.13
2022-09-03T11:41:01.307Z,4.43
2022-09-03T11:43:30.722Z,2.13
2022-09-03T11:46:31.822Z,2.00
2022-09-03T11:49:13.769Z,2.10
2022-09-03T11:51:44.014Z,2.70
2022-09-03T11:56:41.807Z,1.93
2022-09-03T11:59:22.354Z,1.98
2022-09-03T12:01:54.392Z,2.65
2022-09-03T12:04:36.209Z,2.05
2022-09-03T12:07:27.942Z,1.95
2022-09-03T12:09:57.470Z,1.90
2022-09-03T12:12:45.987Z,2.92
2022-09-03T12:15:38.901Z,2.38
2022-09-03T12:18:19.775Z,1.60
2022-09-03T12:20:48.847Z,2.17
2022-09-03T12:23:45.548Z,1.77
2022-09-03T12:29:02.641Z,1.65
2022-09-03T12:31:43.094Z,1.63
2022-09-03T12:36:55.543Z,1.77
2022-09-03T12:42:31.225Z,1.50
2022-09-03T12:45:10.503Z,2.03
2022-09-03T12:47:41.439Z,2.00
2022-09-03T12:50:11.653Z,2.22
2022-09-03T12:58:25.675Z,2.70
2022-09-03T13:00:57.940Z,1.83
2022-09-03T13:03:36.337Z,2.03
2022-09-03T13:06:14.465Z,2.00
2022-09-03T13:08:58.134Z,1.77
2022-09-03T13:11:26.010Z,2.33
2022-09-03T13:14:02.461Z,2.20
2022-09-03T13:19:41.668Z,1.60
2022-09-03T13:28:27.575Z,2.60
2022-09-03T13:31:12.225Z,2.55
2022-09-03T13:33:43.676Z,3.58
2022-09-03T13:36:29.210Z,3.22
2022-09-03T13:39:06.002Z,1.98
2022-09-03T13:41:39.120Z,2.28
2022-09-03T13:44:20.370Z,2.03
2022-09-03T13:46:55.085Z,2.08
2022-09-03T13:49:55.934Z,2.50
2022-09-03T13:52:45.083Z,2.45
2022-09-03T13:55:40.616Z,1.90
2022-09-03T13:58:25.902Z,3.75
2022-09-03T14:01:26.163Z,2.83
2022-09-03T14:03:57.772Z,1.60
2022-09-03T14:06:50.837Z,2.55
2022-09-03T14:09:34.807Z,1.70
2022-09-03T14:12:18.472Z,1.67
2022-09-03T14:15:01.827Z,2.13
2022-09-03T14:18:03.340Z,2.30
2022-09-03T14:20:36.310Z,2.42
2022-09-03T14:23:25.728Z,1.40
2022-09-03T14:25:56.676Z,1.55
2022-09-03T14:28:36.335Z,2.75
2022-09-03T14:31:18.333Z,1.80
2022-09-03T14:33:58.227Z,1.50
2022-09-03T14:37:01.869Z,1.48
2022-09-03T14:39:54.420Z,1.50
2022-09-03T14:43:11.685Z,1.73
2022-09-03T14:46:06.278Z,3.03
2022-09-03T14:48:42.864Z,3.75
2022-09-03T14:51:28.223Z,6.25
2022-09-03T14:54:03.678Z,9.23
2022-09-03T14:56:51.313Z,8.63
2022-09-03T14:59:39.426Z,8.35
2022-09-03T15:02:25.051Z,7.28
2022-09-03T15:05:14.444Z,5.18
2022-09-03T15:07:50.992Z,5.03
2022-09-03T15:10:27.606Z,5.35
2022-09-03T15:13:09.009Z,6.22
2022-09-03T15:16:02.148Z,3.45
2022-09-03T15:19:05.316Z,3.55
2022-09-03T15:21:53.336Z,3.40
2022-09-03T15:24:43.582Z,4.85
2022-09-03T15:29:53.856Z,3.33
2022-09-03T15:32:50.359Z,3.80
2022-09-03T15:35:56.617Z,3.10
2022-09-03T15:38:41.267Z,3.08
2022-09-03T15:41:40.038Z,3.22
2022-09-03T15:44:34.678Z,2.40
2022-09-03T15:47:14.271Z,2.80
2022-09-03T15:52:42.324Z,3.45
2022-09-03T15:55:33.392Z,2.85
2022-09-03T15:58:29.507Z,2.10
2022-09-03T16:01:21.540Z,2.15
2022-09-03T16:07:24.088Z,2.05
2022-09-03T16:10:23.271Z,2.45
2022-09-03T16:13:01.016Z,2.90
2022-09-03T16:15:40.690Z,3.35
2022-09-03T16:18:45.570Z,2.75
2022-09-03T16:21:32.806Z,1.92
2022-09-03T16:24:24.052Z,2.17
2022-09-03T16:27:03.173Z,3.75
2022-09-03T16:29:31.720Z,1.50
2022-09-03T16:32:21.718Z,1.80
2022-09-03T16:34:57.146Z,2.10
2022-09-03T16:37:29.889Z,1.80
2022-09-03T16:40:02.492Z,1.70
2022-09-03T16:43:00.728Z,1.77
2022-09-03T16:45:49.006Z,1.75
2022-09-03T16:48:35.750Z,2.05
2022-09-03T16:54:16.610Z,1.67
2022-09-03T16:56:54.244Z,1.90
2022-09-03T16:59:45.300Z,5.10
2022-09-03T17:02:41.112Z,1.80
2022-09-03T17:05:57.972Z,2.63
2022-09-03T17:08:39.832Z,2.05
2022-09-03T17:11:21.561Z,1.65
2022-09-03T17:14:35.872Z,2.35
2022-09-03T17:17:49.814Z,2.00
2022-09-03T17:20:49.091Z,2.17
2022-09-03T17:23:40.728Z,1.80
2022-09-03T17:26:14.636Z,1.88
2022-09-03T17:29:08.457Z,2.10
2022-09-03T17:31:50.928Z,1.95
2022-09-03T17:34:26.655Z,1.70
2022-09-03T17:37:19.323Z,1.75
2022-09-03T17:40:04.903Z,1.67
2022-09-03T17:43:09.986Z,1.67
2022-09-03T17:45:48.033Z,2.35
2022-09-03T17:48:26.797Z,2.67
2022-09-03T17:51:04.946Z,1.88
2022-09-03T17:53:44.093Z,2.20
2022-09-03T17:56:33.665Z,1.63
2022-09-03T17:59:21.270Z,2.42
2022-09-03T18:02:17.106Z,1.40
2022-09-03T18:04:52.475Z,2.70
2022-09-03T18:07:51.109Z,1.75
2022-09-03T18:10:42.735Z,3.05
2022-09-03T18:13:28.411Z,1.60
2022-09-03T18:16:09.974Z,1.70
2022-09-03T18:18:43.493Z,1.60
2022-09-03T18:21:32.888Z,1.67
2022-09-03T18:24:38.673Z,1.70
2022-09-03T18:27:34.008Z,1.60
2022-09-03T18:30:28.530Z,1.60
2022-09-03T18:33:14.660Z,2.40
2022-09-03T18:36:02.765Z,1.60
2022-09-03T18:38:57.239Z,1.60
2022-09-03T18:41:54.357Z,2.63
2022-09-03T18:45:20.208Z,1.92
2022-09-03T18:48:34.174Z,2.13
2022-09-03T18:51:44.615Z,1.70
2022-09-03T18:55:06.858Z,1.80
2022-09-03T18:58:25.620Z,1.77
2022-09-03T19:01:35.592Z,2.20
2022-09-03T19:04:27.866Z,2.00
2022-09-03T19:07:37.958Z,1.90
2022-09-03T19:10:58.304Z,2.83
2022-09-03T19:13:54.720Z,2.25
2022-09-03T19:16:53.860Z,2.20
2022-09-03T19:19:57.736Z,2.80
2022-09-03T19:22:52.663Z,1.90
2022-09-03T19:25:38.983Z,2.10
2022-09-03T19:28:38.247Z,2.40
2022-09-03T19:31:55.976Z,2.90
2022-09-03T19:35:06.300Z,2.22
2022-09-03T19:38:08.198Z,2.95
2022-09-03T19:41:16.087Z,2.38
2022-09-03T19:44:09.502Z,2.83
2022-09-03T19:47:03.560Z,2.35
2022-09-03T19:50:01.197Z,2.30
2022-09-03T19:52:56.797Z,3.42
2022-09-03T19:55:52.440Z,2.40
2022-09-03T19:58:43.936Z,2.67
2022-09-03T20:01:30.680Z,4.82
2022-09-03T20:04:19.251Z,5.45
2022-09-03T20:07:05.792Z,6.20
2022-09-03T20:09:59.871Z,4.50
2022-09-03T20:12:34.141Z,3.17
2022-09-03T20:15:05.280Z,3.58
2022-09-03T20:18:02.547Z,4.03
2022-09-03T20:20:48.493Z,4.18
2022-09-03T20:23:25.196Z,3.47
2022-09-03T20:26:14.308Z,2.88
2022-09-03T20:29:02.463Z,4.05
2022-09-03T20:31:53.008Z,3.33
2022-09-03T20:34:30.614Z,5.07
2022-09-03T20:37:16.786Z,3.58
2022-09-03T20:40:08.181Z,5.47
2022-09-03T20:42:43.852Z,3.67
2022-09-03T20:45:28.052Z,2.67
2022-09-03T20:48:11.306Z,2.40
2022-09-03T20:50:44.555Z,2.58
2022-09-03T20:53:42.164Z,2.75
2022-09-03T20:56:32.420Z,2.95
2022-09-03T21:00:01.347Z,3.22
2022-09-03T21:02:39.933Z,3.33
2022-09-03T21:05:35.579Z,3.03
2022-09-03T21:08:29.902Z,2.45
2022-09-03T21:11:06.670Z,2.53
2022-09-03T21:13:38.887Z,2.45
2022-09-03T21:16:34.671Z,2.67
2022-09-03T21:19:07.251Z,2.50
2022-09-03T21:21:48.536Z,2.65
2022-09-03T21:24:39.526Z,2.53
2022-09-03T21:27:15.619Z,2.80
2022-09-03T21:29:59.246Z,2.35
2022-09-03T21:32:47.282Z,2.53
2022-09-03T21:35:31.049Z,2.45
2022-09-03T21:38:12.705Z,3.13
2022-09-03T21:40:47.378Z,2.72
2022-09-03T21:43:32.706Z,3.25
2022-09-03T21:46:28.296Z,2.67
2022-09-03T21:49:01.065Z,3.47
2022-09-03T21:51:38.012Z,2.88
2022-09-03T21:54:13.576Z,3.13
2022-09-03T21:57:05.226Z,3.28
2022-09-03T21:59:43.873Z,2.75
2022-09-03T22:02:24.345Z,2.92
2022-09-03T22:04:51.992Z,3.15
2022-09-03T22:07:58.478Z,3.10
2022-09-03T22:10:31.868Z,3.40
2022-09-03T22:13:15.415Z,3.55
2022-09-03T22:15:51.382Z,3.90
2022-09-03T22:18:28.695Z,3.75
2022-09-03T22:21:21.382Z,3.58
2022-09-03T22:24:23.495Z,3.53
2022-09-03T22:26:52.785Z,3.63
2022-09-03T22:32:38.753Z,3.65
2022-09-03T22:35:36.696Z,3.80
2022-09-03T22:38:25.174Z,3.50
2022-09-03T22:41:30.989Z,3.72
2022-09-03T22:47:15.303Z,3.28
2022-09-03T22:50:01.234Z,3.72
2022-09-03T22:52:45.404Z,4.63
2022-09-03T22:57:57.515Z,3.60
2022-09-03T23:00:24.375Z,3.15
2022-09-03T23:02:59.492Z,3.80
2022-09-03T23:08:27.439Z,3.65
2022-09-03T23:11:24.509Z,3.28
2022-09-03T23:14:25.523Z,3.42
2022-09-03T23:16:57.941Z,3.42
2022-09-03T23:19:41.728Z,3.35
2022-09-03T23:22:33.039Z,3.20
2022-09-03T23:28:05.460Z,3.08
2022-09-03T23:30:32.021Z,3.67
2022-09-03T23:32:59.803Z,3.05
2022-09-03T23:38:58.102Z,3.50
2022-09-03T23:41:47.119Z,4.13
2022-09-03T23:44:35.312Z,3.40
2022-09-03T23:50:17.220Z,3.22
2022-09-03T23:52:56.789Z,2.83
2022-09-03T23:58:09.570Z,3.17
